sensor_id;sensor_type;location;lat;lon;timestamp;temperature;humidity
76203;DHT22;64985;46.364;17.008;2023-02-15T00:00:26;-0.30;99.90
76203;DHT22;64985;46.364;17.008;2023-02-15T00:03:28;-0.30;99.90
76203;DHT22;64985;46.364;17.008;2023-02-15T00:06:31;-0.30;99.90
76203;DHT22;64985;46.364;17.008;2023-02-15T00:09:33;-0.30;99.90
76203;DHT22;64985;46.364;17.008;2023-02-15T00:12:35;-0.30;99.90
76203;DHT22;64985;46.364;17.008;2023-02-15T00:15:38;-0.30;99.90
76203;DHT22;64985;46.364;17.008;2023-02-15T00:18:40;-0.30;99.90
76203;DHT22;64985;46.364;17.008;2023-02-15T00:21:42;-0.30;99.90
76203;DHT22;64985;46.364;17.008;2023-02-15T00:24:45;-0.20;99.90
76203;DHT22;64985;46.364;17.008;2023-02-15T00:27:47;-0.20;99.90
76203;DHT22;64985;46.364;17.008;2023-02-15T00:30:49;-0.20;99.90
76203;DHT22;64985;46.364;17.008;2023-02-15T00:33:51;-0.20;99.90
76203;DHT22;64985;46.364;17.008;2023-02-15T00:36:54;-0.20;99.90
76203;DHT22;64985;46.364;17.008;2023-02-15T00:39:56;-0.20;99.90
76203;DHT22;64985;46.364;17.008;2023-02-15T00:42:58;-0.10;99.90
76203;DHT22;64985;46.364;17.008;2023-02-15T00:46:01;-0.10;99.90
76203;DHT22;64985;46.364;17.008;2023-02-15T00:49:05;-0.10;99.90
76203;DHT22;64985;46.364;17.008;2023-02-15T00:52:07;-0.10;99.90
76203;DHT22;64985;46.364;17.008;2023-02-15T00:55:09;-0.10;99.90
76203;DHT22;64985;46.364;17.008;2023-02-15T00:58:12;0.00;99.90
76203;DHT22;64985;46.364;17.008;2023-02-15T01:01:17;0.00;99.90
76203;DHT22;64985;46.364;17.008;2023-02-15T01:04:20;0.00;99.90
76203;DHT22;64985;46.364;17.008;2023-02-15T01:07:22;0.00;99.90
76203;DHT22;64985;46.364;17.008;2023-02-15T01:10:25;0.00;99.90
76203;DHT22;64985;46.364;17.008;2023-02-15T01:13:28;0.00;99.90
76203;DHT22;64985;46.364;17.008;2023-02-15T01:16:30;0.10;99.90
76203;DHT22;64985;46.364;17.008;2023-02-15T01:19:32;0.10;99.90
76203;DHT22;64985;46.364;17.008;2023-02-15T01:22:35;0.10;99.90
76203;DHT22;64985;46.364;17.008;2023-02-15T01:25:37;0.10;99.90
76203;DHT22;64985;46.364;17.008;2023-02-15T01:28:41;0.10;99.90
76203;DHT22;64985;46.364;17.008;2023-02-15T01:31:43;0.10;99.90
76203;DHT22;64985;46.364;17.008;2023-02-15T01:34:45;0.20;99.90
76203;DHT22;64985;46.364;17.008;2023-02-15T01:37:47;0.10;99.90
76203;DHT22;64985;46.364;17.008;2023-02-15T01:40:53;0.10;99.90
76203;DHT22;64985;46.364;17.008;2023-02-15T01:43:58;0.10;99.90
76203;DHT22;64985;46.364;17.008;2023-02-15T01:47:01;0.20;99.90
76203;DHT22;64985;46.364;17.008;2023-02-15T01:53:18;0.20;99.90
76203;DHT22;64985;46.364;17.008;2023-02-15T01:56:26;0.20;99.90
76203;DHT22;64985;46.364;17.008;2023-02-15T01:59:31;0.30;99.90
76203;DHT22;64985;46.364;17.008;2023-02-15T02:02:35;0.30;99.90
76203;DHT22;64985;46.364;17.008;2023-02-15T02:05:38;0.30;99.90
76203;DHT22;64985;46.364;17.008;2023-02-15T02:08:42;0.30;99.90
76203;DHT22;64985;46.364;17.008;2023-02-15T02:11:46;0.30;99.90
76203;DHT22;64985;46.364;17.008;2023-02-15T02:14:51;0.30;99.90
76203;DHT22;64985;46.364;17.008;2023-02-15T02:17:58;0.30;99.90
76203;DHT22;64985;46.364;17.008;2023-02-15T02:35:22;0.30;99.90
76203;DHT22;64985;46.364;17.008;2023-02-15T02:41:51;0.30;99.90
76203;DHT22;64985;46.364;17.008;2023-02-15T02:45:13;0.30;99.90
76203;DHT22;64985;46.364;17.008;2023-02-15T02:48:24;0.30;99.90
76203;DHT22;64985;46.364;17.008;2023-02-15T02:51:27;0.30;99.90
76203;DHT22;64985;46.364;17.008;2023-02-15T02:54:31;0.30;99.90
76203;DHT22;64985;46.364;17.008;2023-02-15T02:57:37;0.30;99.90
76203;DHT22;64985;46.364;17.008;2023-02-15T03:03:57;0.30;99.90
76203;DHT22;64985;46.364;17.008;2023-02-15T03:07:06;0.30;99.90
76203;DHT22;64985;46.364;17.008;2023-02-15T03:10:09;0.30;99.90
76203;DHT22;64985;46.364;17.008;2023-02-15T03:13:12;0.30;99.90
76203;DHT22;64985;46.364;17.008;2023-02-15T03:16:16;0.40;99.90
76203;DHT22;64985;46.364;17.008;2023-02-15T03:19:31;0.40;99.90
76203;DHT22;64985;46.364;17.008;2023-02-15T03:22:39;0.40;99.90
76203;DHT22;64985;46.364;17.008;2023-02-15T03:25:48;0.40;99.90
76203;DHT22;64985;46.364;17.008;2023-02-15T03:28:54;0.40;99.90
76203;DHT22;64985;46.364;17.008;2023-02-15T03:32:02;0.40;99.90
76203;DHT22;64985;46.364;17.008;2023-02-15T03:35:07;0.40;99.90
76203;DHT22;64985;46.364;17.008;2023-02-15T03:38:10;0.40;99.90
76203;DHT22;64985;46.364;17.008;2023-02-15T03:41:16;0.40;99.90
76203;DHT22;64985;46.364;17.008;2023-02-15T03:44:31;0.40;99.90
76203;DHT22;64985;46.364;17.008;2023-02-15T03:47:46;0.40;99.90
76203;DHT22;64985;46.364;17.008;2023-02-15T03:50:49;0.40;99.90
76203;DHT22;64985;46.364;17.008;2023-02-15T03:54:14;0.40;99.90
76203;DHT22;64985;46.364;17.008;2023-02-15T03:57:40;0.40;99.90
76203;DHT22;64985;46.364;17.008;2023-02-15T04:01:13;0.40;99.90
76203;DHT22;64985;46.364;17.008;2023-02-15T04:04:38;0.40;99.90
76203;DHT22;64985;46.364;17.008;2023-02-15T04:07:48;0.40;99.90
76203;DHT22;64985;46.364;17.008;2023-02-15T04:10:50;0.40;99.90
76203;DHT22;64985;46.364;17.008;2023-02-15T04:13:56;0.30;99.90
76203;DHT22;64985;46.364;17.008;2023-02-15T04:16:59;0.40;99.90
76203;DHT22;64985;46.364;17.008;2023-02-15T04:20:01;0.40;99.90
76203;DHT22;64985;46.364;17.008;2023-02-15T04:23:22;0.30;99.90
76203;DHT22;64985;46.364;17.008;2023-02-15T04:26:43;0.40;99.90
76203;DHT22;64985;46.364;17.008;2023-02-15T04:29:45;0.40;99.90
76203;DHT22;64985;46.364;17.008;2023-02-15T04:32:47;0.40;99.90
76203;DHT22;64985;46.364;17.008;2023-02-15T04:35:49;0.40;99.90
76203;DHT22;64985;46.364;17.008;2023-02-15T04:38:52;0.40;99.90
76203;DHT22;64985;46.364;17.008;2023-02-15T04:41:54;0.50;99.90
76203;DHT22;64985;46.364;17.008;2023-02-15T04:44:56;0.50;99.90
76203;DHT22;64985;46.364;17.008;2023-02-15T04:47:58;0.40;99.90
76203;DHT22;64985;46.364;17.008;2023-02-15T04:51:08;0.40;99.90
76203;DHT22;64985;46.364;17.008;2023-02-15T04:54:11;0.40;99.90
76203;DHT22;64985;46.364;17.008;2023-02-15T04:57:13;0.40;99.90
76203;DHT22;64985;46.364;17.008;2023-02-15T05:00:15;0.40;99.90
76203;DHT22;64985;46.364;17.008;2023-02-15T05:03:18;0.50;99.90
76203;DHT22;64985;46.364;17.008;2023-02-15T05:06:21;0.50;99.90
76203;DHT22;64985;46.364;17.008;2023-02-15T05:09:23;0.50;99.90
76203;DHT22;64985;46.364;17.008;2023-02-15T05:12:25;0.50;99.90
76203;DHT22;64985;46.364;17.008;2023-02-15T05:15:27;0.50;99.90
76203;DHT22;64985;46.364;17.008;2023-02-15T05:18:29;0.60;99.90
76203;DHT22;64985;46.364;17.008;2023-02-15T05:21:32;0.60;99.90
76203;DHT22;64985;46.364;17.008;2023-02-15T05:24:35;0.60;99.90
76203;DHT22;64985;46.364;17.008;2023-02-15T05:27:55;0.50;99.90
76203;DHT22;64985;46.364;17.008;2023-02-15T05:31:17;0.50;99.90
76203;DHT22;64985;46.364;17.008;2023-02-15T05:34:20;0.50;99.90
76203;DHT22;64985;46.364;17.008;2023-02-15T05:37:23;0.50;99.90
76203;DHT22;64985;46.364;17.008;2023-02-15T05:40:25;0.50;99.90
76203;DHT22;64985;46.364;17.008;2023-02-15T05:43:27;0.50;99.90
76203;DHT22;64985;46.364;17.008;2023-02-15T05:46:29;0.60;99.90
76203;DHT22;64985;46.364;17.008;2023-02-15T05:49:32;0.60;99.90
76203;DHT22;64985;46.364;17.008;2023-02-15T05:52:34;0.60;99.90
76203;DHT22;64985;46.364;17.008;2023-02-15T05:55:40;0.60;99.90
76203;DHT22;64985;46.364;17.008;2023-02-15T05:58:43;0.60;99.90
76203;DHT22;64985;46.364;17.008;2023-02-15T06:01:45;0.60;99.90
76203;DHT22;64985;46.364;17.008;2023-02-15T06:04:47;0.60;99.90
76203;DHT22;64985;46.364;17.008;2023-02-15T06:07:49;0.60;99.90
76203;DHT22;64985;46.364;17.008;2023-02-15T06:10:51;0.60;99.90
76203;DHT22;64985;46.364;17.008;2023-02-15T06:13:54;0.60;99.90
76203;DHT22;64985;46.364;17.008;2023-02-15T06:16:56;0.60;99.90
76203;DHT22;64985;46.364;17.008;2023-02-15T06:19:58;0.60;99.90
76203;DHT22;64985;46.364;17.008;2023-02-15T06:23:00;0.60;99.90
76203;DHT22;64985;46.364;17.008;2023-02-15T06:26:02;0.70;99.90
76203;DHT22;64985;46.364;17.008;2023-02-15T06:29:05;0.70;99.90
76203;DHT22;64985;46.364;17.008;2023-02-15T06:32:07;0.70;99.90
76203;DHT22;64985;46.364;17.008;2023-02-15T06:35:09;0.80;99.90
76203;DHT22;64985;46.364;17.008;2023-02-15T06:38:11;0.80;99.90
76203;DHT22;64985;46.364;17.008;2023-02-15T06:41:14;0.80;99.90
76203;DHT22;64985;46.364;17.008;2023-02-15T06:44:16;0.90;99.90
76203;DHT22;64985;46.364;17.008;2023-02-15T06:47:18;0.90;99.90
76203;DHT22;64985;46.364;17.008;2023-02-15T06:50:20;1.10;99.90
76203;DHT22;64985;46.364;17.008;2023-02-15T06:53:22;1.10;99.90
76203;DHT22;64985;46.364;17.008;2023-02-15T06:56:24;1.20;99.90
76203;DHT22;64985;46.364;17.008;2023-02-15T06:59:27;1.30;99.90
76203;DHT22;64985;46.364;17.008;2023-02-15T07:02:29;1.40;99.90
76203;DHT22;64985;46.364;17.008;2023-02-15T07:05:33;1.40;99.90
76203;DHT22;64985;46.364;17.008;2023-02-15T07:08:36;1.50;99.90
76203;DHT22;64985;46.364;17.008;2023-02-15T07:11:38;1.50;99.90
76203;DHT22;64985;46.364;17.008;2023-02-15T07:14:59;1.70;99.90
76203;DHT22;64985;46.364;17.008;2023-02-15T07:18:01;1.70;99.90
76203;DHT22;64985;46.364;17.008;2023-02-15T07:21:04;1.70;99.90
76203;DHT22;64985;46.364;17.008;2023-02-15T07:24:06;1.90;99.90
76203;DHT22;64985;46.364;17.008;2023-02-15T07:27:09;1.90;99.90
76203;DHT22;64985;46.364;17.008;2023-02-15T07:30:16;2.10;99.90
76203;DHT22;64985;46.364;17.008;2023-02-15T07:33:18;2.20;99.90
76203;DHT22;64985;46.364;17.008;2023-02-15T07:36:28;2.20;99.90
76203;DHT22;64985;46.364;17.008;2023-02-15T07:39:31;2.20;99.90
76203;DHT22;64985;46.364;17.008;2023-02-15T07:42:33;2.40;99.90
76203;DHT22;64985;46.364;17.008;2023-02-15T07:45:36;2.50;99.90
76203;DHT22;64985;46.364;17.008;2023-02-15T07:48:39;2.60;99.90
76203;DHT22;64985;46.364;17.008;2023-02-15T07:51:42;2.80;99.90
76203;DHT22;64985;46.364;17.008;2023-02-15T07:54:44;2.90;99.90
76203;DHT22;64985;46.364;17.008;2023-02-15T07:57:48;3.10;99.90
76203;DHT22;64985;46.364;17.008;2023-02-15T08:00:51;3.20;99.90
76203;DHT22;64985;46.364;17.008;2023-02-15T08:03:59;3.40;99.90
76203;DHT22;64985;46.364;17.008;2023-02-15T08:07:01;3.50;99.90
76203;DHT22;64985;46.364;17.008;2023-02-15T08:10:04;3.70;99.90
76203;DHT22;64985;46.364;17.008;2023-02-15T08:13:06;3.80;99.90
76203;DHT22;64985;46.364;17.008;2023-02-15T08:16:08;3.90;99.90
76203;DHT22;64985;46.364;17.008;2023-02-15T08:19:25;4.00;99.90
76203;DHT22;64985;46.364;17.008;2023-02-15T08:22:27;4.10;99.90
76203;DHT22;64985;46.364;17.008;2023-02-15T08:25:31;4.00;99.90
76203;DHT22;64985;46.364;17.008;2023-02-15T08:28:33;4.00;99.90
76203;DHT22;64985;46.364;17.008;2023-02-15T08:31:36;4.20;99.90
76203;DHT22;64985;46.364;17.008;2023-02-15T08:34:41;4.20;99.90
76203;DHT22;64985;46.364;17.008;2023-02-15T08:37:43;4.30;99.90
76203;DHT22;64985;46.364;17.008;2023-02-15T08:40:47;4.40;99.90
76203;DHT22;64985;46.364;17.008;2023-02-15T08:43:54;4.60;99.90
76203;DHT22;64985;46.364;17.008;2023-02-15T08:46:56;4.80;99.90
76203;DHT22;64985;46.364;17.008;2023-02-15T08:50:05;4.90;99.90
76203;DHT22;64985;46.364;17.008;2023-02-15T08:53:07;5.00;99.90
76203;DHT22;64985;46.364;17.008;2023-02-15T08:56:09;5.10;99.90
76203;DHT22;64985;46.364;17.008;2023-02-15T08:59:15;5.10;99.90
76203;DHT22;64985;46.364;17.008;2023-02-15T09:02:18;5.10;99.90
76203;DHT22;64985;46.364;17.008;2023-02-15T09:05:20;5.20;99.90
76203;DHT22;64985;46.364;17.008;2023-02-15T09:08:22;5.30;99.90
76203;DHT22;64985;46.364;17.008;2023-02-15T09:11:30;5.30;99.50
76203;DHT22;64985;46.364;17.008;2023-02-15T09:14:33;5.50;99.90
76203;DHT22;64985;46.364;17.008;2023-02-15T09:17:35;5.70;98.40
76203;DHT22;64985;46.364;17.008;2023-02-15T09:20:37;5.60;98.70
76203;DHT22;64985;46.364;17.008;2023-02-15T09:23:44;5.70;97.70
76203;DHT22;64985;46.364;17.008;2023-02-15T09:26:47;5.90;98.20
76203;DHT22;64985;46.364;17.008;2023-02-15T09:29:49;6.00;97.30
76203;DHT22;64985;46.364;17.008;2023-02-15T09:32:51;6.00;96.20
76203;DHT22;64985;46.364;17.008;2023-02-15T09:35:54;6.10;95.30
76203;DHT22;64985;46.364;17.008;2023-02-15T09:42:35;6.20;93.60
76203;DHT22;64985;46.364;17.008;2023-02-15T09:45:52;6.20;93.10
76203;DHT22;64985;46.364;17.008;2023-02-15T09:49:42;6.40;92.40
76203;DHT22;64985;46.364;17.008;2023-02-15T09:59:51;6.80;91.90
76203;DHT22;64985;46.364;17.008;2023-02-15T10:26:52;7.70;73.70
76203;DHT22;64985;46.364;17.008;2023-02-15T10:30:13;7.90;73.20
76203;DHT22;64985;46.364;17.008;2023-02-15T10:47:25;7.70;81.50
76203;DHT22;64985;46.364;17.008;2023-02-15T10:57:14;7.90;77.60
76203;DHT22;64985;46.364;17.008;2023-02-15T11:06:50;7.70;81.60
76203;DHT22;64985;46.364;17.008;2023-02-15T11:10:01;7.80;79.70
76203;DHT22;64985;46.364;17.008;2023-02-15T11:13:27;7.90;78.30
76203;DHT22;64985;46.364;17.008;2023-02-15T11:16:38;8.10;79.00
76203;DHT22;64985;46.364;17.008;2023-02-15T11:22:54;8.20;79.20
76203;DHT22;64985;46.364;17.008;2023-02-15T11:25:59;8.10;78.30
76203;DHT22;64985;46.364;17.008;2023-02-15T11:29:31;8.40;69.50
76203;DHT22;64985;46.364;17.008;2023-02-15T11:32:47;8.40;71.00
76203;DHT22;64985;46.364;17.008;2023-02-15T11:36:07;8.60;67.60
76203;DHT22;64985;46.364;17.008;2023-02-15T11:39:14;8.80;64.50
76203;DHT22;64985;46.364;17.008;2023-02-15T11:42:20;9.50;71.80
76203;DHT22;64985;46.364;17.008;2023-02-15T11:45:28;10.60;59.00
76203;DHT22;64985;46.364;17.008;2023-02-15T11:48:32;10.90;53.40
76203;DHT22;64985;46.364;17.008;2023-02-15T11:51:35;10.90;51.10
76203;DHT22;64985;46.364;17.008;2023-02-15T11:54:45;11.30;47.70
76203;DHT22;64985;46.364;17.008;2023-02-15T11:58:11;11.30;49.70
76203;DHT22;64985;46.364;17.008;2023-02-15T12:01:27;11.80;47.20
76203;DHT22;64985;46.364;17.008;2023-02-15T12:04:38;12.00;47.10
76203;DHT22;64985;46.364;17.008;2023-02-15T12:07:46;11.20;46.70
76203;DHT22;64985;46.364;17.008;2023-02-15T12:11:00;11.40;46.90
76203;DHT22;64985;46.364;17.008;2023-02-15T12:14:08;10.80;48.80
76203;DHT22;64985;46.364;17.008;2023-02-15T12:17:13;10.90;48.40
76203;DHT22;64985;46.364;17.008;2023-02-15T12:23:18;11.70;47.10
76203;DHT22;64985;46.364;17.008;2023-02-15T12:26:29;12.30;45.20
76203;DHT22;64985;46.364;17.008;2023-02-15T12:29:40;11.60;45.50
76203;DHT22;64985;46.364;17.008;2023-02-15T12:33:32;11.50;47.10
76203;DHT22;64985;46.364;17.008;2023-02-15T12:36:20;11.30;45.10
76203;DHT22;64985;46.364;17.008;2023-02-15T12:39:27;11.60;47.10
76203;DHT22;64985;46.364;17.008;2023-02-15T12:42:42;11.70;45.90
76203;DHT22;64985;46.364;17.008;2023-02-15T12:45:45;12.60;43.80
76203;DHT22;64985;46.364;17.008;2023-02-15T12:49:07;12.40;42.70
76203;DHT22;64985;46.364;17.008;2023-02-15T12:55:26;11.80;45.00
76203;DHT22;64985;46.364;17.008;2023-02-15T12:58:33;11.40;45.90
76203;DHT22;64985;46.364;17.008;2023-02-15T13:01:36;10.90;45.40
76203;DHT22;64985;46.364;17.008;2023-02-15T13:04:48;10.60;47.20
76203;DHT22;64985;46.364;17.008;2023-02-15T13:07:56;10.70;47.60
76203;DHT22;64985;46.364;17.008;2023-02-15T13:17:26;11.90;43.90
76203;DHT22;64985;46.364;17.008;2023-02-15T13:20:32;12.10;46.50
76203;DHT22;64985;46.364;17.008;2023-02-15T13:23:36;11.10;45.30
76203;DHT22;64985;46.364;17.008;2023-02-15T13:26:41;11.00;46.10
76203;DHT22;64985;46.364;17.008;2023-02-15T13:33:29;12.10;47.70
76203;DHT22;64985;46.364;17.008;2023-02-15T13:40:29;13.00;41.40
76203;DHT22;64985;46.364;17.008;2023-02-15T14:09:03;12.70;41.50
76203;DHT22;64985;46.364;17.008;2023-02-15T14:18:51;14.30;39.00
76203;DHT22;64985;46.364;17.008;2023-02-15T14:22:18;14.40;37.80
76203;DHT22;64985;46.364;17.008;2023-02-15T14:25:35;14.70;37.50
76203;DHT22;64985;46.364;17.008;2023-02-15T14:31:45;13.90;37.80
76203;DHT22;64985;46.364;17.008;2023-02-15T14:34:57;13.60;37.10
76203;DHT22;64985;46.364;17.008;2023-02-15T14:38:14;13.30;37.00
76203;DHT22;64985;46.364;17.008;2023-02-15T14:41:37;13.90;36.60
76203;DHT22;64985;46.364;17.008;2023-02-15T14:45:22;13.80;36.90
76203;DHT22;64985;46.364;17.008;2023-02-15T14:48:33;13.70;36.50
76203;DHT22;64985;46.364;17.008;2023-02-15T14:57:57;13.50;37.10
76203;DHT22;64985;46.364;17.008;2023-02-15T15:01:10;13.50;36.80
76203;DHT22;64985;46.364;17.008;2023-02-15T15:04:21;13.50;37.20
76203;DHT22;64985;46.364;17.008;2023-02-15T15:10:45;13.20;37.10
76203;DHT22;64985;46.364;17.008;2023-02-15T15:14:00;13.20;37.70
76203;DHT22;64985;46.364;17.008;2023-02-15T15:17:04;13.20;36.90
76203;DHT22;64985;46.364;17.008;2023-02-15T15:23:40;12.90;37.70
76203;DHT22;64985;46.364;17.008;2023-02-15T15:26:42;12.80;38.00
76203;DHT22;64985;46.364;17.008;2023-02-15T15:29:51;13.00;37.80
76203;DHT22;64985;46.364;17.008;2023-02-15T15:49:24;12.10;41.70
76203;DHT22;64985;46.364;17.008;2023-02-15T15:52:29;11.40;43.30
76203;DHT22;64985;46.364;17.008;2023-02-15T15:55:34;10.30;44.70
76203;DHT22;64985;46.364;17.008;2023-02-15T15:58:44;9.20;47.90
76203;DHT22;64985;46.364;17.008;2023-02-15T16:01:48;8.30;55.80
76203;DHT22;64985;46.364;17.008;2023-02-15T16:04:52;7.50;70.40
76203;DHT22;64985;46.364;17.008;2023-02-15T16:07:56;6.90;81.10
76203;DHT22;64985;46.364;17.008;2023-02-15T16:10:58;6.50;88.80
76203;DHT22;64985;46.364;17.008;2023-02-15T16:14:02;6.10;91.80
76203;DHT22;64985;46.364;17.008;2023-02-15T16:17:07;5.50;94.60
76203;DHT22;64985;46.364;17.008;2023-02-15T16:20:19;4.90;96.50
76203;DHT22;64985;46.364;17.008;2023-02-15T16:27:08;4.20;98.00
76203;DHT22;64985;46.364;17.008;2023-02-15T16:33:35;3.80;98.50
76203;DHT22;64985;46.364;17.008;2023-02-15T16:36:38;3.60;99.90
76203;DHT22;64985;46.364;17.008;2023-02-15T16:39:42;3.30;99.50
76203;DHT22;64985;46.364;17.008;2023-02-15T16:42:45;2.80;99.90
76203;DHT22;64985;46.364;17.008;2023-02-15T16:46:00;2.50;99.90
76203;DHT22;64985;46.364;17.008;2023-02-15T16:49:25;2.30;99.90
76203;DHT22;64985;46.364;17.008;2023-02-15T16:52:34;2.20;99.90
76203;DHT22;64985;46.364;17.008;2023-02-15T16:55:39;2.20;99.90
76203;DHT22;64985;46.364;17.008;2023-02-15T16:58:46;1.90;99.90
76203;DHT22;64985;46.364;17.008;2023-02-15T17:01:56;1.80;99.90
76203;DHT22;64985;46.364;17.008;2023-02-15T17:05:20;1.50;99.90
76203;DHT22;64985;46.364;17.008;2023-02-15T17:08:41;1.30;99.90
76203;DHT22;64985;46.364;17.008;2023-02-15T17:11:56;1.10;99.90
76203;DHT22;64985;46.364;17.008;2023-02-15T17:15:02;1.00;99.90
76203;DHT22;64985;46.364;17.008;2023-02-15T17:18:44;0.80;99.90
76203;DHT22;64985;46.364;17.008;2023-02-15T17:21:51;0.80;99.90
76203;DHT22;64985;46.364;17.008;2023-02-15T17:25:00;0.70;99.90
76203;DHT22;64985;46.364;17.008;2023-02-15T17:28:16;0.50;99.90
76203;DHT22;64985;46.364;17.008;2023-02-15T17:31:21;0.30;99.90
76203;DHT22;64985;46.364;17.008;2023-02-15T17:34:48;0.00;99.90
76203;DHT22;64985;46.364;17.008;2023-02-15T17:38:20;-0.20;99.90
76203;DHT22;64985;46.364;17.008;2023-02-15T17:41:28;-0.40;99.90
76203;DHT22;64985;46.364;17.008;2023-02-15T17:44:32;-0.40;99.90
76203;DHT22;64985;46.364;17.008;2023-02-15T17:47:36;-0.30;99.90
76203;DHT22;64985;46.364;17.008;2023-02-15T17:50:40;-0.30;99.90
76203;DHT22;64985;46.364;17.008;2023-02-15T17:53:44;-0.30;99.90
76203;DHT22;64985;46.364;17.008;2023-02-15T17:57:13;-0.30;99.90
76203;DHT22;64985;46.364;17.008;2023-02-15T18:00:18;-0.40;99.90
76203;DHT22;64985;46.364;17.008;2023-02-15T18:03:44;-0.50;99.90
76203;DHT22;64985;46.364;17.008;2023-02-15T18:07:16;-0.70;99.90
76203;DHT22;64985;46.364;17.008;2023-02-15T18:10:41;-0.80;99.90
76203;DHT22;64985;46.364;17.008;2023-02-15T18:14:08;-0.90;99.90
76203;DHT22;64985;46.364;17.008;2023-02-15T18:17:13;-0.90;99.90
76203;DHT22;64985;46.364;17.008;2023-02-15T18:20:27;-1.00;99.90
76203;DHT22;64985;46.364;17.008;2023-02-15T18:23:32;-1.10;99.90
76203;DHT22;64985;46.364;17.008;2023-02-15T18:26:38;-1.10;99.90
76203;DHT22;64985;46.364;17.008;2023-02-15T18:29:47;-1.20;99.90
76203;DHT22;64985;46.364;17.008;2023-02-15T18:32:53;-1.30;99.90
76203;DHT22;64985;46.364;17.008;2023-02-15T18:36:01;-1.40;99.90
76203;DHT22;64985;46.364;17.008;2023-02-15T18:42:37;-1.40;99.90
76203;DHT22;64985;46.364;17.008;2023-02-15T18:45:42;-1.30;99.90
76203;DHT22;64985;46.364;17.008;2023-02-15T18:48:46;-1.40;99.90
76203;DHT22;64985;46.364;17.008;2023-02-15T18:51:49;-1.40;99.90
76203;DHT22;64985;46.364;17.008;2023-02-15T18:54:59;-1.30;99.90
76203;DHT22;64985;46.364;17.008;2023-02-15T18:58:05;-1.40;99.90
76203;DHT22;64985;46.364;17.008;2023-02-15T19:01:22;-1.50;99.90
76203;DHT22;64985;46.364;17.008;2023-02-15T19:04:28;-1.60;99.90
76203;DHT22;64985;46.364;17.008;2023-02-15T19:07:37;-1.70;99.90
76203;DHT22;64985;46.364;17.008;2023-02-15T19:10:40;-1.70;99.90
76203;DHT22;64985;46.364;17.008;2023-02-15T19:13:45;-1.70;99.90
76203;DHT22;64985;46.364;17.008;2023-02-15T19:16:53;-1.70;99.90
76203;DHT22;64985;46.364;17.008;2023-02-15T19:19:57;-1.70;99.90
76203;DHT22;64985;46.364;17.008;2023-02-15T19:23:06;-1.80;99.90
76203;DHT22;64985;46.364;17.008;2023-02-15T19:26:11;-1.80;99.90
76203;DHT22;64985;46.364;17.008;2023-02-15T19:29:24;-1.90;99.90
76203;DHT22;64985;46.364;17.008;2023-02-15T19:32:29;-2.00;99.90
76203;DHT22;64985;46.364;17.008;2023-02-15T19:35:35;-2.00;99.90
76203;DHT22;64985;46.364;17.008;2023-02-15T19:38:41;-2.10;99.90
76203;DHT22;64985;46.364;17.008;2023-02-15T19:41:45;-2.10;99.90
76203;DHT22;64985;46.364;17.008;2023-02-15T19:44:50;-2.00;99.90
76203;DHT22;64985;46.364;17.008;2023-02-15T19:47:55;-2.00;99.90
76203;DHT22;64985;46.364;17.008;2023-02-15T19:50:59;-2.10;99.90
76203;DHT22;64985;46.364;17.008;2023-02-15T19:54:27;-2.20;99.90
76203;DHT22;64985;46.364;17.008;2023-02-15T19:57:36;-2.30;99.90
76203;DHT22;64985;46.364;17.008;2023-02-15T20:00:42;-2.30;99.90
76203;DHT22;64985;46.364;17.008;2023-02-15T20:03:46;-2.40;99.90
76203;DHT22;64985;46.364;17.008;2023-02-15T20:06:51;-2.50;99.90
76203;DHT22;64985;46.364;17.008;2023-02-15T20:09:57;-2.50;99.90
76203;DHT22;64985;46.364;17.008;2023-02-15T20:13:02;-2.40;99.90
76203;DHT22;64985;46.364;17.008;2023-02-15T20:16:06;-2.50;99.90
76203;DHT22;64985;46.364;17.008;2023-02-15T20:19:12;-2.50;99.90
76203;DHT22;64985;46.364;17.008;2023-02-15T20:22:23;-2.50;99.90
76203;DHT22;64985;46.364;17.008;2023-02-15T20:25:30;-2.60;99.90
76203;DHT22;64985;46.364;17.008;2023-02-15T20:28:36;-2.60;99.90
76203;DHT22;64985;46.364;17.008;2023-02-15T20:31:42;-2.70;99.90
76203;DHT22;64985;46.364;17.008;2023-02-15T20:34:48;-2.70;99.90
76203;DHT22;64985;46.364;17.008;2023-02-15T20:37:54;-2.70;99.90
76203;DHT22;64985;46.364;17.008;2023-02-15T20:41:00;-2.70;99.90
76203;DHT22;64985;46.364;17.008;2023-02-15T20:44:24;-2.70;99.90
76203;DHT22;64985;46.364;17.008;2023-02-15T20:47:29;-2.70;99.90
76203;DHT22;64985;46.364;17.008;2023-02-15T20:50:34;-2.70;99.90
76203;DHT22;64985;46.364;17.008;2023-02-15T20:53:43;-2.70;99.90
76203;DHT22;64985;46.364;17.008;2023-02-15T20:56:48;-2.80;99.90
76203;DHT22;64985;46.364;17.008;2023-02-15T20:59:52;-2.80;99.90
76203;DHT22;64985;46.364;17.008;2023-02-15T21:03:00;-2.80;99.90
76203;DHT22;64985;46.364;17.008;2023-02-15T21:06:04;-2.80;99.90
76203;DHT22;64985;46.364;17.008;2023-02-15T21:09:13;-2.80;99.90
76203;DHT22;64985;46.364;17.008;2023-02-15T21:12:19;-2.80;99.90
76203;DHT22;64985;46.364;17.008;2023-02-15T21:18:31;-2.90;99.90
76203;DHT22;64985;46.364;17.008;2023-02-15T21:21:37;-3.00;99.90
76203;DHT22;64985;46.364;17.008;2023-02-15T21:24:48;-3.10;99.90
76203;DHT22;64985;46.364;17.008;2023-02-15T21:27:54;-3.10;99.90
76203;DHT22;64985;46.364;17.008;2023-02-15T21:30:58;-3.20;99.90
76203;DHT22;64985;46.364;17.008;2023-02-15T21:34:02;-3.20;99.90
76203;DHT22;64985;46.364;17.008;2023-02-15T21:37:34;-3.20;99.90
76203;DHT22;64985;46.364;17.008;2023-02-15T21:40:39;-3.30;99.90
76203;DHT22;64985;46.364;17.008;2023-02-15T21:43:43;-3.20;99.90
76203;DHT22;64985;46.364;17.008;2023-02-15T21:47:11;-3.20;99.90
76203;DHT22;64985;46.364;17.008;2023-02-15T21:50:37;-3.10;99.90
76203;DHT22;64985;46.364;17.008;2023-02-15T21:53:57;-3.20;99.90
76203;DHT22;64985;46.364;17.008;2023-02-15T21:57:00;-3.20;99.90
76203;DHT22;64985;46.364;17.008;2023-02-15T22:00:05;-3.20;99.90
76203;DHT22;64985;46.364;17.008;2023-02-15T22:03:11;-3.20;99.90
76203;DHT22;64985;46.364;17.008;2023-02-15T22:06:13;-3.20;99.90
76203;DHT22;64985;46.364;17.008;2023-02-15T22:09:21;-3.20;99.90
76203;DHT22;64985;46.364;17.008;2023-02-15T22:12:24;-3.30;99.90
76203;DHT22;64985;46.364;17.008;2023-02-15T22:15:30;-3.30;99.90
76203;DHT22;64985;46.364;17.008;2023-02-15T22:18:34;-3.40;99.90
76203;DHT22;64985;46.364;17.008;2023-02-15T22:21:36;-3.40;99.90
76203;DHT22;64985;46.364;17.008;2023-02-15T22:24:39;-3.50;99.90
76203;DHT22;64985;46.364;17.008;2023-02-15T22:27:43;-3.40;99.90
76203;DHT22;64985;46.364;17.008;2023-02-15T22:30:45;-3.40;99.90
76203;DHT22;64985;46.364;17.008;2023-02-15T22:33:48;-3.40;99.90
76203;DHT22;64985;46.364;17.008;2023-02-15T22:36:56;-3.40;99.90
76203;DHT22;64985;46.364;17.008;2023-02-15T22:39:58;-3.40;99.90
76203;DHT22;64985;46.364;17.008;2023-02-15T22:43:03;-3.40;99.90